Time;durP1;ratioP1;P1;durP2;ratioP2;P2;SDS_P1;SDS_P2;PMS_P1;PMS_P2;Temp;Humidity;BMP_temperature;BMP_pressure;BME280_temperature;BME280_humidity;BME280_pressure;Samples;Min_cycle;Max_cycle;Signal;HPM_P1;HPM_P2
2023/02/19 00:00:34;;;;;;;;;;;21.10;59.20;;;;;;1532098;75;1121;-59
2023/02/19 00:02:36;;;;;;;;;;;21.10;59.20;;;;;;1539411;75;752;-60
2023/02/19 00:04:38;;;;;;;;;;;21.00;59.10;;;;;;1523040;75;776;-61
2023/02/19 00:06:40;;;;;;;;;;;21.10;59.10;;;;;;1541075;75;754;-59
2023/02/19 00:08:41;;;;;;;;;;;21.10;59.20;;;;;;1535690;75;1945;-61
2023/02/19 00:10:43;;;;;;;;;;;21.10;59.30;;;;;;1536242;75;1522;-61
2023/02/19 00:12:45;;;;;;;;;;;21.00;59.20;;;;;;1541473;75;699;-59
2023/02/19 00:14:47;;;;;;;;;;;21.00;59.30;;;;;;1543648;75;731;-59
2023/02/19 00:16:49;;;;;;;;;;;21.00;59.10;;;;;;1531487;75;742;-59
2023/02/19 00:18:51;;;;;;;;;;;21.10;59.10;;;;;;1536411;75;785;-59
2023/02/19 00:20:56;;;;;;;;;;;21.00;59.00;;;;;;1555862;75;1203;-59
2023/02/19 00:22:58;;;;;;;;;;;21.10;59.00;;;;;;1537740;75;684;-62
2023/02/19 00:24:59;;;;;;;;;;;21.10;58.90;;;;;;1530659;75;1695;-59
2023/02/19 00:27:01;;;;;;;;;;;21.10;58.70;;;;;;1551401;75;1938;-59
2023/02/19 00:29:03;;;;;;;;;;;21.10;58.60;;;;;;1560294;75;686;-60
2023/02/19 00:31:06;;;;;;;;;;;21.10;58.50;;;;;;1552985;75;1169;-60
2023/02/19 00:33:07;;;;;;;;;;;21.20;58.50;;;;;;1533350;75;730;-65
2023/02/19 00:35:09;;;;;;;;;;;21.30;58.50;;;;;;1539976;75;917;-60
2023/02/19 00:37:11;;;;;;;;;;;21.10;58.40;;;;;;1548479;75;791;-60
2023/02/19 00:39:14;;;;;;;;;;;21.10;58.40;;;;;;1530486;75;1579;-59
2023/02/19 00:41:19;;;;;;;;;;;21.10;58.40;;;;;;1537312;75;1191;-59
2023/02/19 00:43:21;;;;;;;;;;;21.20;58.40;;;;;;1560080;75;764;-59
2023/02/19 00:45:22;;;;;;;;;;;21.10;58.50;;;;;;1565748;75;677;-60
2023/02/19 00:47:24;;;;;;;;;;;21.20;58.40;;;;;;1539280;75;1951;-63
2023/02/19 00:49:26;;;;;;;;;;;21.30;58.40;;;;;;1564082;75;795;-60
2023/02/19 00:51:29;;;;;;;;;;;21.30;58.40;;;;;;1566009;75;1227;-59
2023/02/19 00:53:31;;;;;;;;;;;21.20;58.30;;;;;;1536762;75;1539;-59
2023/02/19 00:55:33;;;;;;;;;;;21.20;57.80;;;;;;1557252;75;797;-59
2023/02/19 00:57:34;;;;;;;;;;;21.40;58.40;;;;;;1543436;75;807;-60
2023/02/19 00:59:36;;;;;;;;;;;21.20;58.30;;;;;;1537261;75;730;-62
2023/02/19 01:01:38;;;;;;;;;;;21.20;57.80;;;;;;1546975;75;1096;-61
2023/02/19 01:03:40;;;;;;;;;;;21.30;58.40;;;;;;1555375;75;808;-60
2023/02/19 01:05:42;;;;;;;;;;;21.30;58.00;;;;;;1545091;75;685;-61
2023/02/19 01:07:44;;;;;;;;;;;21.30;58.00;;;;;;1541102;75;1933;-59
2023/02/19 01:09:46;;;;;;;;;;;21.20;57.80;;;;;;1524565;75;728;-59
2023/02/19 01:11:48;;;;;;;;;;;21.20;57.80;;;;;;1542187;75;1121;-59
2023/02/19 01:13:49;;;;;;;;;;;21.30;58.40;;;;;;1546744;75;745;-59
2023/02/19 01:15:51;;;;;;;;;;;21.30;58.40;;;;;;1544155;75;894;-59
2023/02/19 01:17:53;;;;;;;;;;;21.20;58.30;;;;;;1527498;75;650;-61
2023/02/19 01:19:55;;;;;;;;;;;21.20;58.30;;;;;;1537237;75;1130;-61
2023/02/19 01:21:57;;;;;;;;;;;21.30;58.50;;;;;;1531875;75;1572;-59
2023/02/19 01:23:59;;;;;;;;;;;21.20;58.30;;;;;;1528710;75;780;-62
2023/02/19 01:26:02;;;;;;;;;;;21.30;58.50;;;;;;1535039;75;698;-60
2023/02/19 01:28:04;;;;;;;;;;;21.30;58.50;;;;;;1548822;75;1940;-60
2023/02/19 01:30:06;;;;;;;;;;;21.30;58.50;;;;;;1543148;75;1131;-60
2023/02/19 01:32:08;;;;;;;;;;;21.20;58.40;;;;;;1552184;75;734;-60
2023/02/19 01:34:11;;;;;;;;;;;21.30;58.50;;;;;;1526821;75;745;-60
2023/02/19 01:36:13;;;;;;;;;;;21.30;58.50;;;;;;1524477;75;667;-59
2023/02/19 01:38:15;;;;;;;;;;;21.30;58.50;;;;;;1533080;75;652;-60
2023/02/19 01:40:17;;;;;;;;;;;21.30;58.50;;;;;;1554290;75;1092;-61
2023/02/19 01:42:19;;;;;;;;;;;21.20;58.40;;;;;;1525647;75;769;-60
2023/02/19 01:44:22;;;;;;;;;;;21.30;58.50;;;;;;1545688;75;744;-60
2023/02/19 01:46:26;;;;;;;;;;;21.30;58.50;;;;;;1551209;75;712;-61
2023/02/19 01:48:31;;;;;;;;;;;21.30;58.50;;;;;;1537826;75;1915;-61
2023/02/19 01:50:35;;;;;;;;;;;21.30;58.50;;;;;;1538125;75;1152;-59
2023/02/19 01:52:37;;;;;;;;;;;21.30;58.50;;;;;;1540555;76;736;-61
2023/02/19 01:54:39;;;;;;;;;;;21.20;58.40;;;;;;1548897;76;698;-60
2023/02/19 01:56:41;;;;;;;;;;;21.30;58.50;;;;;;1540483;76;709;-61
2023/02/19 01:58:43;;;;;;;;;;;21.30;58.50;;;;;;1542045;76;576;-60
2023/02/19 02:00:45;;;;;;;;;;;21.30;58.80;;;;;;1545191;76;1152;-60
2023/02/19 02:02:48;;;;;;;;;;;21.20;58.70;;;;;;1540693;76;1539;-67
2023/02/19 02:04:50;;;;;;;;;;;21.10;59.20;;;;;;1553491;76;821;-60
2023/02/19 02:06:54;;;;;;;;;;;21.10;59.10;;;;;;1540738;76;868;-60
2023/02/19 02:11:16;;;;;;;;;;;21.10;59.10;;;;;;1545529;76;1646;-60
2023/02/19 02:13:18;;;;;;;;;;;21.00;59.20;;;;;;1541047;76;732;-60
2023/02/19 02:15:21;;;;;;;;;;;21.00;59.20;;;;;;1551048;76;780;-60
2023/02/19 02:17:26;;;;;;;;;;;21.00;59.30;;;;;;1540705;76;1535;-61
2023/02/19 02:19:35;;;;;;;;;;;21.10;59.50;;;;;;1555894;76;747;-60
2023/02/19 02:21:43;;;;;;;;;;;21.00;59.40;;;;;;1544641;75;1848;-59
2023/02/19 02:23:49;;;;;;;;;;;21.00;59.40;;;;;;1543100;76;690;-59
2023/02/19 02:26:05;;;;;;;;;;;21.00;59.30;;;;;;1551255;76;792;-59
2023/02/19 02:28:08;;;;;;;;;;;21.00;59.20;;;;;;1540653;76;1935;-59
2023/02/19 02:30:17;;;;;;;;;;;21.10;59.20;;;;;;1540420;76;1120;-62
2023/02/19 02:32:19;;;;;;;;;;;21.10;59.10;;;;;;1546570;76;1685;-60
2023/02/19 02:34:23;;;;;;;;;;;21.10;59.10;;;;;;1543974;75;661;-59
2023/02/19 02:36:29;;;;;;;;;;;21.20;59.00;;;;;;1546680;75;726;-59
2023/02/19 02:38:31;;;;;;;;;;;21.20;58.80;;;;;;1547204;76;1124;-59
2023/02/19 02:40:33;;;;;;;;;;;21.20;58.90;;;;;;1545867;76;1163;-61
2023/02/19 02:42:35;;;;;;;;;;;21.20;58.70;;;;;;1548179;76;888;-60
2023/02/19 02:44:37;;;;;;;;;;;21.20;58.70;;;;;;1522189;76;1575;-62
2023/02/19 02:46:40;;;;;;;;;;;21.20;58.60;;;;;;1538699;76;678;-60
2023/02/19 02:48:44;;;;;;;;;;;21.20;58.50;;;;;;1546794;76;1964;-61
2023/02/19 02:50:47;;;;;;;;;;;21.30;58.70;;;;;;1542751;76;1788;-62
2023/02/19 02:55:10;;;;;;;;;;;21.30;58.70;;;;;;1544666;76;1643;-60
2023/02/19 02:57:13;;;;;;;;;;;21.20;58.60;;;;;;1542244;76;693;-60
2023/02/19 02:59:16;;;;;;;;;;;21.30;58.80;;;;;;1546988;76;1494;-60
2023/02/19 03:03:39;;;;;;;;;;;21.30;58.70;;;;;;1541106;76;1638;-60
2023/02/19 03:05:53;;;;;;;;;;;21.20;58.60;;;;;;1534396;76;741;-60
2023/02/19 03:08:11;;;;;;;;;;;21.30;58.70;;;;;;1537319;76;1936;-59
2023/02/19 03:10:14;;;;;;;;;;;21.20;58.60;;;;;;1540981;76;1972;-58
2023/02/19 03:19:20;;;;;;;;;;;21.10;59.40;;;;;;1489261;76;1044;-60
2023/02/19 03:21:22;;;;;;;;;;;21.00;59.10;;;;;;1541048;76;1139;-60
2023/02/19 03:26:02;;;;;;;;;;;21.20;58.90;;;;;;1534378;76;716;-60
2023/02/19 03:27:50;;;;;;;;;;;21.20;58.70;;;;;;1533048;76;1676;-62
2023/02/19 03:29:52;;;;;;;;;;;21.20;58.60;;;;;;1544706;76;943;-64
2023/02/19 03:31:55;;;;;;;;;;;21.20;58.60;;;;;;1545342;76;1148;-61
2023/02/19 03:33:58;;;;;;;;;;;21.30;58.60;;;;;;1535165;76;979;-61
2023/02/19 03:36:00;;;;;;;;;;;21.20;58.50;;;;;;1546608;76;680;-60
2023/02/19 03:38:04;;;;;;;;;;;21.30;58.60;;;;;;1546077;76;707;-63
2023/02/19 03:40:06;;;;;;;;;;;21.20;58.50;;;;;;1540782;76;1824;-60
2023/02/19 03:42:09;;;;;;;;;;;21.20;58.40;;;;;;1543742;76;1510;-60
2023/02/19 03:44:19;;;;;;;;;;;21.20;58.40;;;;;;1529466;76;1664;-60
2023/02/19 03:46:38;;;;;;;;;;;21.20;58.40;;;;;;1544379;76;1439;-64
2023/02/19 03:48:47;;;;;;;;;;;21.20;58.40;;;;;;1539593;76;1935;-61
2023/02/19 03:50:54;;;;;;;;;;;21.20;58.40;;;;;;1537799;76;1150;-61
2023/02/19 03:53:00;;;;;;;;;;;21.20;58.40;;;;;;1546879;76;1858;-64
2023/02/19 03:55:20;;;;;;;;;;;21.30;58.50;;;;;;1535292;76;1676;-61
2023/02/19 03:57:26;;;;;;;;;;;21.20;58.40;;;;;;1543254;76;724;-64
2023/02/19 03:59:30;;;;;;;;;;;21.20;58.50;;;;;;1532423;76;1919;-64
2023/02/19 04:01:48;;;;;;;;;;;21.10;58.90;;;;;;1542958;76;1826;-61
2023/02/19 04:03:54;;;;;;;;;;;21.10;58.80;;;;;;1545925;76;704;-60
2023/02/19 04:05:57;;;;;;;;;;;21.10;58.70;;;;;;1540290;76;1897;-61
2023/02/19 04:08:01;;;;;;;;;;;21.10;58.60;;;;;;1535671;76;1781;-61
2023/02/19 04:10:03;;;;;;;;;;;21.10;58.50;;;;;;1547091;76;1936;-62
2023/02/19 04:12:05;;;;;;;;;;;21.10;58.80;;;;;;1542872;76;741;-63
2023/02/19 04:14:12;;;;;;;;;;;21.10;59.00;;;;;;1533224;76;699;-63
2023/02/19 04:16:18;;;;;;;;;;;21.00;59.00;;;;;;1535580;76;811;-64
2023/02/19 04:18:22;;;;;;;;;;;20.90;59.20;;;;;;1539696;76;741;-62
2023/02/19 04:20:25;;;;;;;;;;;20.90;59.20;;;;;;1534189;76;1135;-64
2023/02/19 04:22:26;;;;;;;;;;;20.90;59.20;;;;;;1549425;76;746;-61
2023/02/19 04:24:30;;;;;;;;;;;20.90;59.40;;;;;;1537669;76;1545;-62
2023/02/19 04:26:32;;;;;;;;;;;20.90;59.40;;;;;;1541429;76;761;-61
2023/02/19 04:28:34;;;;;;;;;;;20.80;59.40;;;;;;1550746;76;1916;-61
2023/02/19 04:30:36;;;;;;;;;;;20.80;59.50;;;;;;1546500;76;1137;-62
2023/02/19 04:32:37;;;;;;;;;;;20.80;59.40;;;;;;1535117;76;706;-64
2023/02/19 04:34:39;;;;;;;;;;;20.80;59.60;;;;;;1542979;76;703;-64
2023/02/19 04:36:41;;;;;;;;;;;20.80;59.60;;;;;;1545826;76;527;-64
2023/02/19 04:38:43;;;;;;;;;;;20.80;59.50;;;;;;1533619;76;1554;-61
2023/02/19 04:40:46;;;;;;;;;;;20.80;59.60;;;;;;1547856;76;1164;-62
2023/02/19 04:42:47;;;;;;;;;;;20.80;59.80;;;;;;1544096;76;717;-62
2023/02/19 04:44:49;;;;;;;;;;;20.70;59.80;;;;;;1533115;76;752;-61
2023/02/19 04:46:51;;;;;;;;;;;20.80;59.90;;;;;;1542966;76;717;-62
2023/02/19 04:48:53;;;;;;;;;;;20.70;59.80;;;;;;1535399;76;1944;-63
2023/02/19 04:50:55;;;;;;;;;;;20.80;59.80;;;;;;1551190;76;1145;-61
2023/02/19 04:52:57;;;;;;;;;;;20.80;59.60;;;;;;1545526;76;1673;-64
2023/02/19 04:54:59;;;;;;;;;;;20.80;59.50;;;;;;1532406;76;782;-64
2023/02/19 04:57:00;;;;;;;;;;;20.90;59.60;;;;;;1539068;76;746;-62
2023/02/19 04:59:02;;;;;;;;;;;20.90;59.50;;;;;;1540964;76;718;-61
2023/02/19 05:01:04;;;;;;;;;;;20.90;59.40;;;;;;1552279;76;1154;-61
2023/02/19 05:03:06;;;;;;;;;;;20.90;59.30;;;;;;1547921;76;749;-63
2023/02/19 05:05:08;;;;;;;;;;;20.90;59.20;;;;;;1548586;76;1560;-61
2023/02/19 05:07:10;;;;;;;;;;;21.00;59.20;;;;;;1537761;76;722;-63
2023/02/19 05:09:12;;;;;;;;;;;20.90;59.10;;;;;;1539926;76;1955;-61
2023/02/19 05:11:14;;;;;;;;;;;21.00;59.10;;;;;;1539896;76;1130;-61
2023/02/19 05:13:15;;;;;;;;;;;20.90;59.00;;;;;;1533374;76;742;-61
2023/02/19 05:15:17;;;;;;;;;;;21.00;59.00;;;;;;1538630;76;729;-61
2023/02/19 05:17:19;;;;;;;;;;;21.00;58.90;;;;;;1534962;76;765;-62
2023/02/19 05:19:21;;;;;;;;;;;21.00;58.90;;;;;;1540928;76;1383;-63
2023/02/19 05:21:23;;;;;;;;;;;21.00;58.80;;;;;;1548976;76;1164;-63
2023/02/19 05:23:25;;;;;;;;;;;21.00;58.90;;;;;;1533009;76;747;-64
2023/02/19 05:25:27;;;;;;;;;;;21.00;58.90;;;;;;1537694;76;672;-64
2023/02/19 05:27:30;;;;;;;;;;;21.00;58.90;;;;;;1550539;76;759;-61
2023/02/19 05:29:31;;;;;;;;;;;20.90;58.80;;;;;;1537889;76;1956;-66
2023/02/19 05:31:33;;;;;;;;;;;21.00;58.80;;;;;;1544874;76;1078;-61
2023/02/19 05:33:36;;;;;;;;;;;21.00;58.80;;;;;;1551046;76;1583;-64
2023/02/19 05:35:43;;;;;;;;;;;21.00;58.90;;;;;;1535233;76;781;-60
2023/02/19 05:37:45;;;;;;;;;;;21.00;59.00;;;;;;1542019;76;1785;-60
2023/02/19 05:39:48;;;;;;;;;;;21.00;59.00;;;;;;1548655;76;689;-60
2023/02/19 05:41:49;;;;;;;;;;;21.00;59.10;;;;;;1537826;76;1106;-61
2023/02/19 05:43:51;;;;;;;;;;;21.00;59.40;;;;;;1541432;76;717;-61
2023/02/19 05:45:55;;;;;;;;;;;21.00;59.30;;;;;;1537423;76;734;-60
2023/02/19 05:47:57;;;;;;;;;;;21.00;59.20;;;;;;1545807;76;1588;-58
2023/02/19 05:49:59;;;;;;;;;;;21.00;59.40;;;;;;1547641;76;1939;-58
2023/02/19 05:52:01;;;;;;;;;;;21.00;59.20;;;;;;1537407;76;679;-58
2023/02/19 05:54:03;;;;;;;;;;;21.10;59.20;;;;;;1550453;76;757;-60
2023/02/19 05:56:05;;;;;;;;;;;21.00;59.00;;;;;;1540882;76;714;-61
2023/02/19 05:58:07;;;;;;;;;;;21.10;58.90;;;;;;1540223;76;627;-58
2023/02/19 06:00:09;;;;;;;;;;;21.00;58.90;;;;;;1546896;76;1109;-58
2023/02/19 06:02:11;;;;;;;;;;;21.10;59.00;;;;;;1549814;76;1541;-61
2023/02/19 06:04:13;;;;;;;;;;;21.10;58.90;;;;;;1534136;76;778;-60
2023/02/19 06:06:15;;;;;;;;;;;21.00;58.90;;;;;;1540035;76;759;-61
2023/02/19 06:08:17;;;;;;;;;;;21.00;59.30;;;;;;1535077;76;729;-61
2023/02/19 06:10:19;;;;;;;;;;;21.00;59.20;;;;;;1541294;76;1935;-64
2023/02/19 06:12:21;;;;;;;;;;;21.10;59.40;;;;;;1538764;76;810;-68
2023/02/19 06:14:23;;;;;;;;;;;21.00;59.40;;;;;;1533378;76;717;-64
2023/02/19 06:16:25;;;;;;;;;;;21.00;59.50;;;;;;1541686;76;1571;-62
2023/02/19 06:18:26;;;;;;;;;;;20.90;60.10;;;;;;1544981;76;770;-61
2023/02/19 06:20:28;;;;;;;;;;;21.00;59.80;;;;;;1543253;76;1191;-60
2023/02/19 06:22:30;;;;;;;;;;;21.00;59.50;;;;;;1545638;76;727;-60
2023/02/19 06:24:32;;;;;;;;;;;21.10;59.30;;;;;;1537487;76;684;-62
2023/02/19 06:26:34;;;;;;;;;;;21.00;59.20;;;;;;1542922;76;675;-63
2023/02/19 06:28:36;;;;;;;;;;;21.00;59.30;;;;;;1541061;76;723;-60
2023/02/19 06:30:38;;;;;;;;;;;21.00;59.30;;;;;;1543044;76;1944;-61
2023/02/19 06:32:40;;;;;;;;;;;21.10;59.30;;;;;;1541690;76;688;-61
2023/02/19 06:34:42;;;;;;;;;;;21.10;59.20;;;;;;1542842;76;743;-61
2023/02/19 06:36:44;;;;;;;;;;;21.00;59.00;;;;;;1541229;76;710;-60
2023/02/19 06:38:45;;;;;;;;;;;21.00;59.10;;;;;;1543856;76;715;-62
2023/02/19 06:40:47;;;;;;;;;;;21.00;58.90;;;;;;1544028;76;1117;-60
2023/02/19 06:42:49;;;;;;;;;;;21.10;58.90;;;;;;1533348;76;762;-60
2023/02/19 06:44:51;;;;;;;;;;;21.20;58.90;;;;;;1550766;76;1586;-62
2023/02/19 06:46:56;;;;;;;;;;;21.10;58.90;;;;;;1555663;76;681;-60
2023/02/19 06:48:58;;;;;;;;;;;21.10;58.90;;;;;;1541238;76;784;-61
2023/02/19 06:51:00;;;;;;;;;;;21.10;59.00;;;;;;1547715;76;1940;-60
2023/02/19 06:53:02;;;;;;;;;;;21.10;59.00;;;;;;1532888;76;783;-63
2023/02/19 06:55:03;;;;;;;;;;;21.20;59.00;;;;;;1549393;76;816;-61
2023/02/19 06:57:05;;;;;;;;;;;21.00;58.80;;;;;;1551539;76;768;-61
2023/02/19 06:59:08;;;;;;;;;;;21.10;58.90;;;;;;1537536;76;1712;-60
2023/02/19 07:01:10;;;;;;;;;;;21.10;58.90;;;;;;1541714;76;1196;-59
2023/02/19 07:03:12;;;;;;;;;;;21.10;59.00;;;;;;1539472;76;734;-63
2023/02/19 07:05:14;;;;;;;;;;;21.00;59.00;;;;;;1544068;76;756;-60
2023/02/19 07:07:16;;;;;;;;;;;21.10;59.30;;;;;;1545999;76;705;-61
2023/02/19 07:09:18;;;;;;;;;;;21.00;59.30;;;;;;1535963;76;1932;-60
2023/02/19 07:11:20;;;;;;;;;;;21.00;59.60;;;;;;1542227;76;1153;-60
2023/02/19 07:13:22;;;;;;;;;;;21.00;59.70;;;;;;1538575;76;1535;-59
2023/02/19 07:15:24;;;;;;;;;;;21.00;59.80;;;;;;1539580;76;680;-59
2023/02/19 07:17:26;;;;;;;;;;;21.00;59.80;;;;;;1541234;76;692;-60
2023/02/19 07:19:27;;;;;;;;;;;21.00;59.80;;;;;;1537032;76;754;-62
2023/02/19 07:21:29;;;;;;;;;;;21.00;59.90;;;;;;1541710;76;1192;-60
2023/02/19 07:23:31;;;;;;;;;;;21.00;59.70;;;;;;1538026;76;754;-60
2023/02/19 07:25:33;;;;;;;;;;;21.00;59.60;;;;;;1534470;76;676;-61
2023/02/19 07:27:36;;;;;;;;;;;21.00;59.60;;;;;;1533757;76;1458;-61
2023/02/19 07:29:38;;;;;;;;;;;21.00;59.60;;;;;;1535810;76;1935;-61
2023/02/19 07:31:40;;;;;;;;;;;21.10;59.70;;;;;;1538926;76;1118;-61
2023/02/19 07:33:44;;;;;;;;;;;21.00;59.60;;;;;;1535446;76;776;-60
2023/02/19 07:35:49;;;;;;;;;;;21.00;59.60;;;;;;1548409;76;905;-61
2023/02/19 07:37:51;;;;;;;;;;;21.10;59.60;;;;;;1533115;76;850;-60
2023/02/19 07:39:53;;;;;;;;;;;21.10;59.60;;;;;;1534920;76;1547;-61
2023/02/19 07:41:55;;;;;;;;;;;21.10;59.60;;;;;;1538849;76;1149;-61
2023/02/19 07:43:57;;;;;;;;;;;21.10;59.50;;;;;;1546879;76;795;-64
2023/02/19 07:46:01;;;;;;;;;;;21.00;59.50;;;;;;1549572;76;672;-65
2023/02/19 07:48:03;;;;;;;;;;;21.10;59.50;;;;;;1533119;76;700;-64
2023/02/19 07:50:04;;;;;;;;;;;21.20;59.40;;;;;;1533305;76;1940;-64
2023/02/19 07:52:06;;;;;;;;;;;21.10;59.30;;;;;;1547961;76;768;-64
2023/02/19 07:54:08;;;;;;;;;;;21.10;59.10;;;;;;1537849;76;1497;-65
2023/02/19 07:56:10;;;;;;;;;;;21.20;58.70;;;;;;1544645;76;721;-65
2023/02/19 07:58:12;;;;;;;;;;;21.10;57.80;;;;;;1545252;76;744;-65
2023/02/19 08:00:15;;;;;;;;;;;21.10;57.20;;;;;;1554181;76;1151;-67
2023/02/19 08:04:38;;;;;;;;;;;21.10;56.40;;;;;;1539255;76;1661;-67
2023/02/19 08:06:40;;;;;;;;;;;21.00;55.80;;;;;;1542335;76;1126;-64
2023/02/19 08:08:42;;;;;;;;;;;21.00;55.10;;;;;;1540682;76;1536;-64
2023/02/19 08:13:18;;;;;;;;;;;21.00;55.70;;;;;;1547437;76;1677;-65
2023/02/19 08:15:20;;;;;;;;;;;21.00;55.80;;;;;;1538140;76;1539;-63
2023/02/19 08:17:22;;;;;;;;;;;21.00;55.70;;;;;;1545370;76;1499;-63
2023/02/19 08:19:23;;;;;;;;;;;21.00;55.80;;;;;;1539287;76;1477;-66
2023/02/19 08:21:25;;;;;;;;;;;21.00;55.90;;;;;;1537895;76;1529;-63
2023/02/19 08:23:27;;;;;;;;;;;21.00;55.80;;;;;;1536102;76;1549;-63
2023/02/19 08:25:29;;;;;;;;;;;21.00;55.90;;;;;;1545769;76;1496;-63
2023/02/19 08:27:31;;;;;;;;;;;21.00;55.80;;;;;;1538637;76;1518;-63
2023/02/19 08:29:33;;;;;;;;;;;21.00;55.90;;;;;;1549978;76;1245;-63
2023/02/19 08:31:35;;;;;;;;;;;21.00;55.80;;;;;;1541177;76;1924;-63
2023/02/19 08:33:37;;;;;;;;;;;21.00;55.90;;;;;;1545398;76;1441;-64
2023/02/19 08:35:41;;;;;;;;;;;21.00;55.90;;;;;;1536913;76;1117;-63
2023/02/19 08:37:43;;;;;;;;;;;21.00;56.00;;;;;;1544262;76;2314;-64
2023/02/19 08:39:45;;;;;;;;;;;21.00;56.00;;;;;;1541320;76;1515;-67
2023/02/19 08:41:47;;;;;;;;;;;21.00;56.00;;;;;;1542057;76;1504;-63
2023/02/19 08:43:49;;;;;;;;;;;21.00;56.00;;;;;;1550041;76;1471;-68
2023/02/19 08:45:52;;;;;;;;;;;20.50;55.70;;;;;;1545194;76;1525;-63
2023/02/19 08:47:53;;;;;;;;;;;21.00;55.90;;;;;;1541750;76;1509;-63
2023/02/19 08:49:55;;;;;;;;;;;21.00;56.00;;;;;;1533598;76;1947;-63
2023/02/19 08:51:57;;;;;;;;;;;21.00;55.90;;;;;;1538350;76;1566;-65
2023/02/19 08:54:01;;;;;;;;;;;21.00;55.90;;;;;;1539766;76;1517;-64
2023/02/19 08:56:06;;;;;;;;;;;21.00;56.00;;;;;;1542725;76;1501;-65
2023/02/19 08:58:08;;;;;;;;;;;21.00;56.00;;;;;;1539174;76;1494;-64
2023/02/19 09:00:10;;;;;;;;;;;21.00;56.00;;;;;;1520240;76;1404;-69
2023/02/19 09:02:12;;;;;;;;;;;21.00;56.10;;;;;;1536779;76;1268;-68
2023/02/19 09:04:14;;;;;;;;;;;20.90;56.10;;;;;;1537653;76;1497;-64
2023/02/19 09:06:17;;;;;;;;;;;21.10;56.20;;;;;;1544673;76;1097;-68
2023/02/19 09:08:19;;;;;;;;;;;21.00;56.10;;;;;;1539582;76;706;-64
2023/02/19 09:10:20;;;;;;;;;;;21.10;56.30;;;;;;1536063;76;1949;-63
2023/02/19 09:12:22;;;;;;;;;;;21.10;56.30;;;;;;1548477;76;746;-64
2023/02/19 09:14:24;;;;;;;;;;;21.10;56.40;;;;;;1544215;76;675;-64
2023/02/19 09:16:26;;;;;;;;;;;21.10;56.40;;;;;;1542946;76;742;-66
2023/02/19 09:18:28;;;;;;;;;;;21.10;56.40;;;;;;1539090;76;1510;-67
2023/02/19 09:20:30;;;;;;;;;;;21.10;56.50;;;;;;1538506;76;1154;-63
2023/02/19 09:22:32;;;;;;;;;;;21.10;56.40;;;;;;1542350;76;764;-63
2023/02/19 09:24:34;;;;;;;;;;;21.10;56.40;;;;;;1546447;76;806;-63
2023/02/19 09:26:35;;;;;;;;;;;21.10;56.30;;;;;;1533962;76;772;-64
2023/02/19 09:28:40;;;;;;;;;;;21.10;56.40;;;;;;1535578;76;693;-66
2023/02/19 09:30:41;;;;;;;;;;;21.20;56.30;;;;;;1543254;76;1937;-64
2023/02/19 09:32:43;;;;;;;;;;;21.10;56.30;;;;;;1537706;76;1181;-63
2023/02/19 09:34:45;;;;;;;;;;;21.10;56.30;;;;;;1549448;76;731;-66
2023/02/19 09:36:48;;;;;;;;;;;21.10;56.30;;;;;;1545196;76;710;-64
2023/02/19 09:38:50;;;;;;;;;;;21.10;56.30;;;;;;1539693;76;694;-66
2023/02/19 09:40:52;;;;;;;;;;;21.10;56.30;;;;;;1547558;76;1136;-66
2023/02/19 09:42:54;;;;;;;;;;;21.10;56.30;;;;;;1545184;76;747;-66
2023/02/19 09:44:56;;;;;;;;;;;21.10;56.30;;;;;;1540552;76;746;-65
2023/02/19 09:46:58;;;;;;;;;;;21.10;56.40;;;;;;1524047;76;1557;-63
2023/02/19 09:49:08;;;;;;;;;;;21.10;56.40;;;;;;1539390;76;730;-63
2023/02/19 09:51:10;;;;;;;;;;;21.20;56.50;;;;;;1541792;76;1943;-64
2023/02/19 09:53:14;;;;;;;;;;;21.20;56.50;;;;;;1540401;76;797;-63
2023/02/19 09:55:17;;;;;;;;;;;21.20;56.50;;;;;;1531591;76;1790;-64
2023/02/19 09:57:20;;;;;;;;;;;21.20;56.50;;;;;;1543286;76;791;-65
2023/02/19 09:59:23;;;;;;;;;;;21.20;56.50;;;;;;1540025;76;714;-66
2023/02/19 10:01:26;;;;;;;;;;;21.20;56.50;;;;;;1543150;76;1779;-63
2023/02/19 10:03:33;;;;;;;;;;;21.20;56.60;;;;;;1539195;76;767;-66
2023/02/19 10:05:35;;;;;;;;;;;21.20;56.60;;;;;;1545976;76;597;-66
2023/02/19 10:07:37;;;;;;;;;;;21.20;56.50;;;;;;1544047;76;674;-65
2023/02/19 10:09:39;;;;;;;;;;;21.20;56.50;;;;;;1542962;76;766;-63
2023/02/19 10:11:41;;;;;;;;;;;21.20;56.60;;;;;;1537343;76;1940;-63
2023/02/19 10:13:51;;;;;;;;;;;21.20;56.80;;;;;;1535907;76;708;-63
2023/02/19 10:15:54;;;;;;;;;;;21.10;57.00;;;;;;1537847;76;1617;-66
2023/02/19 10:17:56;;;;;;;;;;;21.10;57.70;;;;;;1545451;76;709;-62
2023/02/19 10:19:58;;;;;;;;;;;21.10;58.60;;;;;;1550404;76;1161;-61
2023/02/19 10:22:00;;;;;;;;;;;21.10;58.70;;;;;;1539382;76;753;-65
2023/02/19 10:24:01;;;;;;;;;;;21.10;58.80;;;;;;1538102;76;730;-62
2023/02/19 10:26:03;;;;;;;;;;;21.10;58.90;;;;;;1534281;76;766;-60
2023/02/19 10:28:06;;;;;;;;;;;21.10;59.00;;;;;;1548255;76;810;-60
2023/02/19 10:30:09;;;;;;;;;;;21.10;59.00;;;;;;1538499;76;1548;-62
2023/02/19 10:32:19;;;;;;;;;;;21.10;59.00;;;;;;1538970;76;1961;-61
2023/02/19 10:34:21;;;;;;;;;;;21.10;59.10;;;;;;1547352;76;724;-61
2023/02/19 10:36:36;;;;;;;;;;;21.20;59.10;;;;;;1542911;76;733;-61
2023/02/19 10:38:39;;;;;;;;;;;21.20;59.10;;;;;;1541285;76;789;-61
2023/02/19 10:40:42;;;;;;;;;;;21.20;59.00;;;;;;1538072;76;1141;-61
2023/02/19 10:42:45;;;;;;;;;;;21.10;59.00;;;;;;1546123;76;1534;-61
2023/02/19 10:44:48;;;;;;;;;;;21.20;59.00;;;;;;1536413;76;700;-62
2023/02/19 10:46:51;;;;;;;;;;;21.20;59.00;;;;;;1543388;76;684;-62
2023/02/19 10:48:55;;;;;;;;;;;21.20;58.90;;;;;;1547742;76;686;-61
2023/02/19 10:50:58;;;;;;;;;;;21.10;58.90;;;;;;1536225;76;1960;-61
2023/02/19 10:53:00;;;;;;;;;;;21.20;58.90;;;;;;1542695;76;780;-62
2023/02/19 10:55:16;;;;;;;;;;;21.20;58.90;;;;;;1542232;76;784;-62
2023/02/19 10:57:53;;;;;;;;;;;21.20;58.90;;;;;;1549428;76;1567;-61
2023/02/19 10:59:29;;;;;;;;;;;21.20;58.90;;;;;;1534573;76;1408;-64
2023/02/19 11:01:31;;;;;;;;;;;21.20;58.80;;;;;;1540238;76;1149;-63
2023/02/19 11:03:32;;;;;;;;;;;21.10;58.80;;;;;;1543707;76;693;-61
2023/02/19 11:05:34;;;;;;;;;;;21.10;58.80;;;;;;1540262;76;748;-62
2023/02/19 11:07:36;;;;;;;;;;;21.10;58.80;;;;;;1533823;77;743;-61
2023/02/19 11:09:39;;;;;;;;;;;21.20;58.80;;;;;;1538034;76;776;-62
2023/02/19 11:11:41;;;;;;;;;;;21.20;58.80;;;;;;1550651;76;1952;-63
2023/02/19 11:13:42;;;;;;;;;;;21.20;58.60;;;;;;1537234;76;705;-61
2023/02/19 11:15:44;;;;;;;;;;;21.20;58.60;;;;;;1535869;76;896;-62
2023/02/19 11:17:48;;;;;;;;;;;21.30;58.60;;;;;;1531537;77;1104;-61
2023/02/19 11:19:51;;;;;;;;;;;21.20;58.50;;;;;;1532830;76;1747;-62
2023/02/19 11:21:53;;;;;;;;;;;21.20;58.40;;;;;;1533051;76;1182;-65
2023/02/19 11:23:55;;;;;;;;;;;21.20;58.40;;;;;;1535832;76;729;-62
2023/02/19 11:25:57;;;;;;;;;;;21.30;58.50;;;;;;1543638;76;1534;-63
2023/02/19 11:28:05;;;;;;;;;;;21.20;58.40;;;;;;1535860;76;875;-62
2023/02/19 11:30:25;;;;;;;;;;;21.30;58.60;;;;;;1536399;76;1590;-65
2023/02/19 11:32:28;;;;;;;;;;;21.30;58.60;;;;;;1536193;76;1920;-61
2023/02/19 11:34:30;;;;;;;;;;;21.40;58.50;;;;;;1540451;76;705;-63
2023/02/19 11:36:35;;;;;;;;;;;21.40;58.40;;;;;;1547472;76;725;-62
2023/02/19 11:38:37;;;;;;;;;;;21.50;57.90;;;;;;1537656;76;745;-62
2023/02/19 11:40:56;;;;;;;;;;;21.50;57.60;;;;;;1534694;76;1605;-62
2023/02/19 11:42:59;;;;;;;;;;;21.50;57.50;;;;;;1531495;76;1812;-64
2023/02/19 11:45:19;;;;;;;;;;;21.50;57.30;;;;;;1541856;76;1973;-61
2023/02/19 11:47:28;;;;;;;;;;;21.50;57.20;;;;;;1533872;76;774;-64
2023/02/19 11:49:38;;;;;;;;;;;21.50;57.20;;;;;;1538522;76;774;-61
2023/02/19 11:51:42;;;;;;;;;;;21.50;57.10;;;;;;1540136;76;2059;-62
2023/02/19 11:53:47;;;;;;;;;;;21.50;57.10;;;;;;1539489;76;1324;-62
2023/02/19 11:55:57;;;;;;;;;;;21.50;57.10;;;;;;1536975;76;746;-61
2023/02/19 11:58:03;;;;;;;;;;;21.50;57.50;;;;;;1534068;76;743;-61
2023/02/19 12:00:22;;;;;;;;;;;21.50;58.00;;;;;;1533870;76;1135;-62
2023/02/19 12:02:28;;;;;;;;;;;21.50;59.00;;;;;;1533756;76;765;-63
2023/02/19 12:04:46;;;;;;;;;;;21.40;59.80;;;;;;1541734;76;1892;-63
2023/02/19 12:06:50;;;;;;;;;;;21.40;60.80;;;;;;1479754;78;1140;-63
2023/02/19 12:09:08;;;;;;;;;;;21.40;61.80;;;;;;1500192;76;1627;-61
2023/02/19 12:11:21;;;;;;;;;;;21.30;62.70;;;;;;1540355;76;1957;-62
2023/02/19 12:13:36;;;;;;;;;;;21.40;63.30;;;;;;1540799;76;1593;-64
2023/02/19 12:15:46;;;;;;;;;;;21.40;63.20;;;;;;1544124;76;1463;-62
2023/02/19 12:18:06;;;;;;;;;;;21.40;62.90;;;;;;1542159;76;1909;-61
2023/02/19 12:20:12;;;;;;;;;;;21.40;62.40;;;;;;1543258;76;1200;-61
2023/02/19 12:22:22;;;;;;;;;;;21.50;62.20;;;;;;1540989;76;1993;-62
2023/02/19 12:24:34;;;;;;;;;;;21.50;62.00;;;;;;1537561;76;1900;-63
2023/02/19 12:26:54;;;;;;;;;;;21.50;61.70;;;;;;1535419;76;2026;-62
2023/02/19 12:29:14;;;;;;;;;;;21.50;61.40;;;;;;1541236;76;1408;-61
2023/02/19 12:31:17;;;;;;;;;;;21.50;61.20;;;;;;1538725;76;1935;-63
2023/02/19 12:33:30;;;;;;;;;;;21.50;61.10;;;;;;1545477;76;1566;-63
2023/02/19 12:35:50;;;;;;;;;;;21.50;60.90;;;;;;1545442;76;1935;-61